createdAt,value
2018-05-02T00:00:43.375Z,62.80
2018-05-02T00:03:09.757Z,63.20
2018-05-02T00:05:36.886Z,62.60
2018-05-02T00:08:03.270Z,62.50
2018-05-02T00:10:30.726Z,62.70
2018-05-02T00:12:57.101Z,62.90
2018-05-02T00:15:23.458Z,62.80
2018-05-02T00:17:50.547Z,63.30
2018-05-02T00:20:16.878Z,63.10
2018-05-02T00:22:43.241Z,63.10
2018-05-02T00:25:09.584Z,63.50
2018-05-02T00:27:35.983Z,63.80
2018-05-02T00:30:02.338Z,63.50
2018-05-02T00:32:28.800Z,64.10
2018-05-02T00:34:55.346Z,63.80
2018-05-02T00:37:22.443Z,63.20
2018-05-02T00:39:48.805Z,63.10
2018-05-02T00:42:15.166Z,63.00
2018-05-02T00:44:41.542Z,62.80
2018-05-02T00:47:07.886Z,63.00
2018-05-02T00:49:35.024Z,62.60
2018-05-02T00:52:01.581Z,62.80
2018-05-02T00:54:27.935Z,62.80
2018-05-02T00:56:55.137Z,63.10
2018-05-02T00:59:21.502Z,63.00
2018-05-02T01:01:47.854Z,62.90
2018-05-02T01:04:14.961Z,63.50
2018-05-02T01:06:41.570Z,63.50
2018-05-02T01:09:07.950Z,63.40
2018-05-02T01:11:35.139Z,62.80
2018-05-02T01:14:02.509Z,61.30
2018-05-02T01:16:29.010Z,61.30
2018-05-02T01:18:55.361Z,61.40
2018-05-02T01:21:21.711Z,61.80
2018-05-02T01:23:48.111Z,61.30
2018-05-02T01:26:15.437Z,61.20
2018-05-02T01:28:41.794Z,61.10
2018-05-02T01:31:09.478Z,61.90
2018-05-02T01:33:36.614Z,62.10
2018-05-02T01:36:03.145Z,62.10
2018-05-02T01:38:29.619Z,62.20
2018-05-02T01:40:55.961Z,63.50
2018-05-02T01:43:22.334Z,63.20
2018-05-02T01:45:49.410Z,63.90
2018-05-02T01:48:15.739Z,63.80
2018-05-02T01:50:42.146Z,64.10
2018-05-02T01:53:09.253Z,64.80
2018-05-02T01:55:35.709Z,64.70
2018-05-02T01:58:02.059Z,64.80
2018-05-02T02:00:29.169Z,65.40
2018-05-02T02:02:55.528Z,65.40
2018-05-02T02:05:21.906Z,65.00
2018-05-02T02:07:48.249Z,65.10
2018-05-02T02:10:14.618Z,65.30
2018-05-02T02:12:41.715Z,65.20
2018-05-02T02:15:08.079Z,65.10
2018-05-02T02:17:34.430Z,65.60
2018-05-02T02:20:00.767Z,65.50
2018-05-02T02:22:27.858Z,66.30
2018-05-02T02:24:54.221Z,66.20
2018-05-02T02:27:20.581Z,66.90
2018-05-02T02:29:46.925Z,66.90
2018-05-02T02:32:13.268Z,66.90
2018-05-02T02:34:40.460Z,66.90
2018-05-02T02:37:06.863Z,66.90
2018-05-02T02:39:33.234Z,66.80
2018-05-02T02:41:59.582Z,67.00
2018-05-02T02:44:25.962Z,67.30
2018-05-02T02:46:52.538Z,67.80
2018-05-02T02:49:18.911Z,68.10
2018-05-02T02:51:45.259Z,68.30
2018-05-02T02:54:11.634Z,68.40
2018-05-02T02:56:38.210Z,68.30
2018-05-02T02:59:04.562Z,68.30
2018-05-02T03:01:30.925Z,67.80
2018-05-02T03:03:57.281Z,67.90
2018-05-02T03:06:24.536Z,67.80
2018-05-02T03:08:50.906Z,67.70
2018-05-02T03:11:18.026Z,67.60
2018-05-02T03:13:44.373Z,67.40
2018-05-02T03:16:11.205Z,67.70
2018-05-02T03:18:38.329Z,68.40
2018-05-02T03:21:05.481Z,68.50
2018-05-02T03:23:32.622Z,68.70
2018-05-02T03:25:59.302Z,68.60
2018-05-02T03:28:25.644Z,68.80
2018-05-02T03:30:52.000Z,68.90
2018-05-02T03:33:18.367Z,68.70
2018-05-02T03:35:44.702Z,68.90
2018-05-02T03:38:11.816Z,69.40
2018-05-02T03:40:38.215Z,69.20
2018-05-02T03:43:04.573Z,69.20
2018-05-02T03:45:30.912Z,69.20
2018-05-02T03:47:57.257Z,69.40
2018-05-02T03:50:23.674Z,69.50
2018-05-02T03:52:50.015Z,69.50
2018-05-02T03:55:16.382Z,69.80
2018-05-02T03:57:43.516Z,69.60
2018-05-02T04:00:22.828Z,69.50
2018-05-02T04:03:01.286Z,69.50
2018-05-02T04:05:40.068Z,69.60
2018-05-02T04:08:06.422Z,69.80
2018-05-02T04:10:32.810Z,69.20
2018-05-02T04:12:59.217Z,69.50
2018-05-02T04:15:25.586Z,69.30
2018-05-02T04:17:51.955Z,69.40
2018-05-02T04:20:18.311Z,69.60
2018-05-02T04:22:44.642Z,69.60
2018-05-02T04:25:11.021Z,69.30
2018-05-02T04:27:37.433Z,69.80
2018-05-02T04:30:03.774Z,70.50
2018-05-02T04:32:30.142Z,71.10
2018-05-02T04:34:57.213Z,71.60
2018-05-02T04:37:23.562Z,72.30
2018-05-02T04:39:49.910Z,71.80
2018-05-02T04:42:16.971Z,71.90
2018-05-02T04:44:43.362Z,71.80
2018-05-02T04:47:09.713Z,71.50
2018-05-02T04:49:36.142Z,71.50
2018-05-02T04:52:02.473Z,71.30
2018-05-02T04:54:28.829Z,71.20
2018-05-02T04:56:55.598Z,71.20
2018-05-02T04:59:22.751Z,70.80
2018-05-02T05:01:49.029Z,70.70
2018-05-02T05:04:16.149Z,70.20
2018-05-02T05:06:42.697Z,70.00
2018-05-02T05:09:09.090Z,69.60
2018-05-02T05:11:36.301Z,70.70
2018-05-02T05:14:02.642Z,70.60
2018-05-02T05:16:29.320Z,70.60
2018-05-02T05:18:56.406Z,70.20
2018-05-02T05:21:22.754Z,70.10
2018-05-02T05:23:49.118Z,69.30
2018-05-02T05:26:16.417Z,69.10
2018-05-02T05:28:42.774Z,69.00
2018-05-02T05:31:09.276Z,68.70
2018-05-02T05:33:35.630Z,68.10
2018-05-02T05:36:02.197Z,68.10
2018-05-02T05:38:28.572Z,68.10
2018-05-02T05:40:54.930Z,67.90
2018-05-02T05:43:21.316Z,67.70
2018-05-02T05:45:48.394Z,67.70
2018-05-02T05:48:14.738Z,67.60
2018-05-02T05:50:41.845Z,67.90
2018-05-02T05:53:08.258Z,67.70
2018-05-02T05:55:35.357Z,67.10
2018-05-02T05:58:01.698Z,67.00
2018-05-02T06:00:28.374Z,66.70
2018-05-02T06:02:54.787Z,66.70
2018-05-02T06:05:21.190Z,67.20
2018-05-02T06:07:47.610Z,66.10
2018-05-02T06:10:14.024Z,66.00
2018-05-02T06:12:41.188Z,64.60
2018-05-02T06:15:07.526Z,65.30
2018-05-02T06:17:33.906Z,62.70
2018-05-02T06:20:00.284Z,62.00
2018-05-02T06:22:26.627Z,62.60
2018-05-02T06:24:53.073Z,62.40
2018-05-02T06:27:19.487Z,62.30
2018-05-02T06:29:45.818Z,60.60
2018-05-02T06:32:12.199Z,60.00
2018-05-02T06:34:39.154Z,59.90
2018-05-02T06:37:05.541Z,60.20
2018-05-02T06:39:31.964Z,60.20
2018-05-02T06:41:58.330Z,59.80
2018-05-02T06:44:25.128Z,59.20
2018-05-02T06:46:51.755Z,59.30
2018-05-02T06:49:18.138Z,58.80
2018-05-02T06:51:44.630Z,58.20
2018-05-02T06:54:11.126Z,58.30
2018-05-02T06:56:37.562Z,58.40
2018-05-02T06:59:03.929Z,59.50
2018-05-02T07:01:30.259Z,60.30
2018-05-02T07:03:56.634Z,60.60
2018-05-02T07:06:23.094Z,60.80
2018-05-02T07:08:50.170Z,60.10
2018-05-02T07:11:16.575Z,60.10
2018-05-02T07:13:43.763Z,60.30
2018-05-02T07:16:10.200Z,60.20
2018-05-02T07:18:36.621Z,59.70
2018-05-02T07:21:02.954Z,59.60
2018-05-02T07:23:29.331Z,58.90
2018-05-02T07:25:55.683Z,58.90
2018-05-02T07:28:22.025Z,58.70
2018-05-02T07:30:49.165Z,58.40
2018-05-02T07:33:16.290Z,58.30
2018-05-02T07:35:42.753Z,58.20
2018-05-02T07:38:09.119Z,57.60
2018-05-02T07:40:35.441Z,57.50
2018-05-02T07:43:01.804Z,57.70
2018-05-02T07:45:28.163Z,57.70
2018-05-02T07:47:54.522Z,57.90
2018-05-02T07:50:20.850Z,58.00
2018-05-02T07:52:47.203Z,58.20
2018-05-02T07:55:13.635Z,58.30
2018-05-02T07:57:40.007Z,58.30
2018-05-02T08:00:06.391Z,58.10
2018-05-02T08:02:32.743Z,58.10
2018-05-02T08:04:59.326Z,57.90
2018-05-02T08:07:26.457Z,57.90
2018-05-02T08:09:52.822Z,57.80
2018-05-02T08:12:19.221Z,57.60
2018-05-02T08:14:45.563Z,55.80
2018-05-02T08:17:11.952Z,56.90
2018-05-02T08:19:38.311Z,55.10
2018-05-02T08:22:04.666Z,54.70
2018-05-02T08:24:31.742Z,53.30
2018-05-02T08:26:58.165Z,53.20
2018-05-02T08:29:25.258Z,52.30
2018-05-02T08:31:51.607Z,52.20
2018-05-02T08:34:17.986Z,51.70
2018-05-02T08:36:45.306Z,51.20
2018-05-02T08:39:11.625Z,51.10
2018-05-02T08:41:37.982Z,51.20
2018-05-02T08:44:05.094Z,51.00
2018-05-02T08:46:31.641Z,51.00
2018-05-02T08:48:57.978Z,50.70
2018-05-02T08:51:24.326Z,50.70
2018-05-02T08:53:51.415Z,50.60
2018-05-02T08:56:18.770Z,51.00
2018-05-02T08:58:45.121Z,51.00
2018-05-02T09:01:11.453Z,50.80
2018-05-02T09:03:38.592Z,51.00
2018-05-02T09:06:14.949Z,50.90
2018-05-02T09:08:41.312Z,51.00
2018-05-02T09:11:07.641Z,51.10
2018-05-02T09:13:34.014Z,51.80
2018-05-02T09:16:00.549Z,51.50
2018-05-02T09:18:26.941Z,51.50
2018-05-02T09:20:53.293Z,52.20
2018-05-02T09:23:20.370Z,50.90
2018-05-02T09:25:47.739Z,50.40
2018-05-02T09:28:14.091Z,50.40
2018-05-02T09:30:40.510Z,50.10
2018-05-02T09:33:07.593Z,50.10
2018-05-02T09:35:34.058Z,50.00
2018-05-02T09:38:01.209Z,50.20
2018-05-02T09:40:27.574Z,50.10
2018-05-02T09:42:53.910Z,50.40
2018-05-02T09:45:21.144Z,49.20
2018-05-02T09:47:47.530Z,49.20
2018-05-02T09:50:13.918Z,48.60
2018-05-02T09:52:40.275Z,48.00
2018-05-02T09:55:06.603Z,48.80
2018-05-02T09:57:32.941Z,48.50
2018-05-02T09:59:59.289Z,48.30
2018-05-02T10:02:26.363Z,47.20
2018-05-02T10:04:52.722Z,47.20
2018-05-02T10:07:19.228Z,47.70
2018-05-02T10:09:45.592Z,47.80
2018-05-02T10:12:12.039Z,47.20
2018-05-02T10:14:38.405Z,47.50
2018-05-02T10:17:04.749Z,46.20
2018-05-02T10:21:52.785Z,46.10
2018-05-02T10:24:19.110Z,46.00
2018-05-02T10:26:45.778Z,45.60
2018-05-02T10:29:12.137Z,45.00
2018-05-02T10:31:39.243Z,44.00
2018-05-02T10:34:05.581Z,44.60
2018-05-02T10:36:32.818Z,43.10
2018-05-02T10:38:59.205Z,43.10
2018-05-02T10:41:25.544Z,42.60
2018-05-02T10:43:51.907Z,41.30
2018-05-02T10:46:18.334Z,41.50
2018-05-02T10:48:46.208Z,41.80
2018-05-02T10:51:12.562Z,41.80
2018-05-02T10:53:39.675Z,41.50
2018-05-02T10:56:06.362Z,41.30
2018-05-02T10:58:32.706Z,42.30
2018-05-02T11:00:59.785Z,41.30
2018-05-02T11:03:26.144Z,41.20
2018-05-02T11:05:53.397Z,39.90
2018-05-02T11:08:19.802Z,39.80
2018-05-02T11:10:46.130Z,39.60
2018-05-02T11:13:13.202Z,38.80
2018-05-02T11:15:40.210Z,38.80
2018-05-02T11:18:06.550Z,37.50
2018-05-02T11:20:32.907Z,37.10
2018-05-02T11:25:40.406Z,37.90
2018-05-02T11:28:06.821Z,37.10
2018-05-02T11:30:33.175Z,36.00
2018-05-02T11:32:59.522Z,34.00
2018-05-02T11:35:25.966Z,35.90
2018-05-02T11:37:52.306Z,35.60
2018-05-02T11:40:18.687Z,35.00
2018-05-02T11:42:45.060Z,35.60
2018-05-02T11:45:19.460Z,37.10
2018-05-02T11:47:45.846Z,37.10
2018-05-02T11:50:12.244Z,37.90
2018-05-02T11:52:38.582Z,37.00
2018-05-02T11:55:05.022Z,37.30
2018-05-02T11:57:31.382Z,36.00
2018-05-02T11:59:57.703Z,35.70
2018-05-02T12:02:24.053Z,35.90
2018-05-02T12:04:50.542Z,36.90
2018-05-02T12:07:16.950Z,37.50
2018-05-02T12:09:44.152Z,38.90
2018-05-02T12:12:10.481Z,38.80
2018-05-02T12:14:36.938Z,39.00
2018-05-02T12:17:03.500Z,39.50
2018-05-02T12:19:29.846Z,40.30
2018-05-02T12:21:56.976Z,38.30
2018-05-02T12:24:24.101Z,36.90
2018-05-02T12:26:50.711Z,36.80
2018-05-02T12:29:17.087Z,37.20
2018-05-02T12:31:43.525Z,36.70
2018-05-02T12:34:10.777Z,34.90
2018-05-02T12:36:37.317Z,34.80
2018-05-02T12:39:03.718Z,32.80
2018-05-02T12:41:30.058Z,32.90
2018-05-02T12:43:56.415Z,31.70
2018-05-02T12:46:22.758Z,31.90
2018-05-02T12:48:49.882Z,30.20
2018-05-02T12:51:16.274Z,30.10
2018-05-02T12:53:42.655Z,30.60
2018-05-02T12:56:09.085Z,29.60
2018-05-02T12:58:35.395Z,31.00
2018-05-02T13:01:01.749Z,31.10
2018-05-02T13:03:28.084Z,30.80
2018-05-02T13:05:54.431Z,30.00
2018-05-02T13:08:21.498Z,32.50
2018-05-02T13:10:47.862Z,32.40
2018-05-02T13:13:15.040Z,33.40
2018-05-02T13:15:41.425Z,33.40
2018-05-02T13:18:07.779Z,34.20
2018-05-02T13:20:34.130Z,34.30
2018-05-02T13:23:00.510Z,35.50
2018-05-02T13:25:27.101Z,35.90
2018-05-02T13:27:53.433Z,35.70
2018-05-02T13:30:19.855Z,36.30
2018-05-02T13:32:46.234Z,37.40
2018-05-02T13:35:12.651Z,38.10
2018-05-02T13:37:39.750Z,38.00
2018-05-02T13:40:06.109Z,38.00
2018-05-02T13:42:32.465Z,38.30
2018-05-02T13:45:04.613Z,37.60
2018-05-02T13:47:31.713Z,37.70
2018-05-02T13:49:58.102Z,37.70
2018-05-02T13:52:25.179Z,37.80
2018-05-02T13:54:51.494Z,37.80
2018-05-02T13:57:17.874Z,36.80
2018-05-02T13:59:44.202Z,37.50
2018-05-02T14:02:10.554Z,37.80
2018-05-02T14:04:36.943Z,37.30
2018-05-02T14:07:03.479Z,37.70
2018-05-02T14:09:29.834Z,37.80
2018-05-02T14:11:56.230Z,38.30
2018-05-02T14:14:22.601Z,38.90
2018-05-02T14:16:49.304Z,38.90
2018-05-02T14:19:15.662Z,39.20
2018-05-02T14:21:42.014Z,39.40
2018-05-02T14:24:08.389Z,39.70
2018-05-02T14:26:34.806Z,40.50
2018-05-02T14:29:01.144Z,39.80
2018-05-02T14:31:27.540Z,39.60
2018-05-02T14:33:53.904Z,39.60
2018-05-02T14:36:20.233Z,38.90
2018-05-02T14:38:47.361Z,39.40
2018-05-02T14:41:13.754Z,39.30
2018-05-02T14:43:40.078Z,40.40
2018-05-02T14:46:06.450Z,40.30
2018-05-02T14:48:32.777Z,40.00
2018-05-02T14:50:59.107Z,40.20
2018-05-02T14:53:25.485Z,40.70
2018-05-02T14:55:51.817Z,40.50
2018-05-02T14:58:18.151Z,40.00
2018-05-02T15:00:45.307Z,39.90
2018-05-02T15:03:11.673Z,39.80
2018-05-02T15:05:38.010Z,39.40
2018-05-02T15:08:04.358Z,39.70
2018-05-02T15:10:30.697Z,40.20
2018-05-02T15:12:57.072Z,40.00
2018-05-02T15:15:23.653Z,38.50
2018-05-02T15:17:50.083Z,37.40
2018-05-02T15:20:16.571Z,37.80
2018-05-02T15:22:42.925Z,38.90
2018-05-02T15:25:09.498Z,39.10
2018-05-02T15:27:35.952Z,39.00
2018-05-02T15:30:02.334Z,39.70
2018-05-02T15:32:28.700Z,39.50
2018-05-02T15:34:55.938Z,40.00
2018-05-02T15:37:22.342Z,39.90
2018-05-02T15:39:49.418Z,39.20
2018-05-02T15:42:15.853Z,38.50
2018-05-02T15:44:42.965Z,38.30
2018-05-02T15:47:09.313Z,38.20
2018-05-02T15:49:35.685Z,38.10
2018-05-02T15:52:02.165Z,38.30
2018-05-02T15:54:28.490Z,38.80
2018-05-02T15:56:55.070Z,38.70
2018-05-02T15:59:22.191Z,37.80
2018-05-02T16:01:48.526Z,37.70
2018-05-02T16:04:14.901Z,38.60
2018-05-02T16:06:41.534Z,38.90
2018-05-02T16:09:07.905Z,39.00
2018-05-02T16:11:34.977Z,39.60
2018-05-02T16:14:01.299Z,39.50
2018-05-02T16:16:27.756Z,39.60
2018-05-02T16:18:54.051Z,40.30
2018-05-02T16:21:20.416Z,40.80
2018-05-02T16:23:46.777Z,41.30
2018-05-02T16:26:13.154Z,41.60
2018-05-02T16:28:39.519Z,41.80
2018-05-02T16:31:05.900Z,42.00
2018-05-02T16:33:32.245Z,42.40
2018-05-02T16:35:58.573Z,42.70
2018-05-02T16:38:25.677Z,43.30
2018-05-02T16:40:52.837Z,43.70
2018-05-02T16:43:19.171Z,43.60
2018-05-02T16:45:45.586Z,44.00
2018-05-02T16:48:11.973Z,44.40
2018-05-02T16:50:38.298Z,44.20
2018-05-02T16:53:04.697Z,44.00
2018-05-02T16:55:31.323Z,44.60
2018-05-02T16:57:58.433Z,45.10
2018-05-02T17:00:24.786Z,45.00
2018-05-02T17:02:51.945Z,45.80
2018-05-02T17:05:19.344Z,45.60
2018-05-02T17:07:45.701Z,45.60
2018-05-02T17:10:12.054Z,45.90
2018-05-02T17:12:38.469Z,46.00
2018-05-02T17:15:05.118Z,46.10
2018-05-02T17:17:31.505Z,46.40
2018-05-02T17:19:58.674Z,46.60
2018-05-02T17:22:25.120Z,46.50
2018-05-02T17:24:51.465Z,47.10
2018-05-02T17:27:17.952Z,46.60
2018-05-02T17:29:44.346Z,46.60
2018-05-02T17:32:11.416Z,46.80
2018-05-02T17:34:37.770Z,46.80
2018-05-02T17:37:04.272Z,47.10
2018-05-02T17:39:30.627Z,47.20
2018-05-02T17:41:56.950Z,47.40
2018-05-02T17:44:23.289Z,47.70
2018-05-02T17:46:49.814Z,47.90
2018-05-02T17:49:16.171Z,48.10
2018-05-02T17:51:43.265Z,48.40
2018-05-02T17:54:10.373Z,48.50
2018-05-02T17:56:36.954Z,48.40
2018-05-02T17:59:03.285Z,48.90
2018-05-02T18:01:30.402Z,49.10
2018-05-02T18:03:56.769Z,49.00
2018-05-02T18:06:23.889Z,49.40
2018-05-02T18:08:50.243Z,49.40
2018-05-02T18:11:17.433Z,50.20
2018-05-02T18:13:44.533Z,49.80
2018-05-02T18:16:10.881Z,49.70
2018-05-02T18:18:37.247Z,49.60
2018-05-02T18:21:03.587Z,49.60
2018-05-02T18:23:30.685Z,50.00
2018-05-02T18:25:57.774Z,50.10
2018-05-02T18:28:25.048Z,50.10
2018-05-02T18:30:51.401Z,50.30
2018-05-02T18:33:17.777Z,50.40
2018-05-02T18:35:44.874Z,51.60
2018-05-02T18:38:11.209Z,51.00
2018-05-02T18:40:37.602Z,51.10
2018-05-02T18:43:03.930Z,51.30
2018-05-02T18:45:31.017Z,51.80
2018-05-02T18:47:57.409Z,51.70
2018-05-02T18:50:23.721Z,51.80
2018-05-02T18:52:50.080Z,52.20
2018-05-02T18:55:16.522Z,52.30
2018-05-02T18:57:42.869Z,52.90
2018-05-02T19:00:09.259Z,53.30
2018-05-02T19:02:35.605Z,53.80
2018-05-02T19:05:01.991Z,54.20
2018-05-02T19:07:29.085Z,54.80
2018-05-02T19:09:55.425Z,54.70
2018-05-02T19:12:21.774Z,54.80
2018-05-02T19:14:48.290Z,55.00
2018-05-02T19:17:14.622Z,55.30
2018-05-02T19:19:47.488Z,55.70
2018-05-02T19:22:13.865Z,56.00
2018-05-02T19:24:46.242Z,56.20
2018-05-02T19:27:12.602Z,56.60
2018-05-02T19:29:38.953Z,57.30
2018-05-02T19:32:11.305Z,57.60
2018-05-02T19:34:37.650Z,57.70
2018-05-02T19:37:03.965Z,57.40
2018-05-02T19:39:36.246Z,57.50
2018-05-02T19:42:08.789Z,57.10
2018-05-02T19:44:35.974Z,56.60
2018-05-02T19:47:07.493Z,56.50
2018-05-02T19:49:34.562Z,55.60
2018-05-02T19:52:07.094Z,55.60
2018-05-02T19:54:33.418Z,55.40
2018-05-02T19:57:14.585Z,55.40
2018-05-02T19:59:40.918Z,55.60
2018-05-02T20:02:14.030Z,55.90
2018-05-02T20:04:40.395Z,55.90
2018-05-02T20:07:07.490Z,56.20
2018-05-02T20:09:39.943Z,56.20
2018-05-02T20:12:12.174Z,56.30
2018-05-02T20:14:38.561Z,56.50
2018-05-02T20:17:05.039Z,56.60
2018-05-02T20:19:32.112Z,57.20
2018-05-02T20:21:58.522Z,57.10
2018-05-02T20:24:25.713Z,56.80
2018-05-02T20:26:55.015Z,56.90
2018-05-02T20:29:21.458Z,56.90
2018-05-02T20:31:47.814Z,57.00
2018-05-02T20:34:14.174Z,56.90
2018-05-02T20:36:41.520Z,57.20
2018-05-02T20:39:07.873Z,57.20
2018-05-02T20:41:34.205Z,57.20
2018-05-02T20:44:01.328Z,57.20
2018-05-02T20:46:28.590Z,57.30
2018-05-02T20:48:55.658Z,57.10
2018-05-02T20:51:22.773Z,56.90
2018-05-02T20:53:49.174Z,56.80
2018-05-02T20:56:15.660Z,57.30
2018-05-02T20:58:42.789Z,57.00
2018-05-02T21:01:09.123Z,57.00
2018-05-02T21:03:35.453Z,57.10
2018-05-02T21:06:01.851Z,57.00
2018-05-02T21:08:28.222Z,57.00
2018-05-02T21:10:55.355Z,57.20
2018-05-02T21:13:21.717Z,57.20
2018-05-02T21:15:49.079Z,57.00
2018-05-02T21:18:15.436Z,57.00
2018-05-02T21:20:41.789Z,56.90
2018-05-02T21:23:08.930Z,57.10
2018-05-02T21:25:35.281Z,57.10
2018-05-02T21:28:01.667Z,56.90
2018-05-02T21:30:28.297Z,56.90
2018-05-02T21:32:54.735Z,56.80
2018-05-02T21:35:21.142Z,56.70
2018-05-02T21:37:48.249Z,56.40
2018-05-02T21:40:14.594Z,56.30
2018-05-02T21:42:40.938Z,56.60
2018-05-02T21:45:07.331Z,56.60
2018-05-02T21:47:33.662Z,56.40
2018-05-02T21:50:00.029Z,56.50
2018-05-02T21:52:26.411Z,56.60
2018-05-02T21:54:52.786Z,56.70
2018-05-02T21:57:19.203Z,56.40
2018-05-02T21:59:45.597Z,56.20
2018-05-02T22:02:11.946Z,56.50
2018-05-02T22:04:39.066Z,56.60
2018-05-02T22:07:05.530Z,56.50
2018-05-02T22:09:31.885Z,56.40
2018-05-02T22:11:58.253Z,56.70
2018-05-02T22:14:25.366Z,56.70
2018-05-02T22:16:53.499Z,56.90
2018-05-02T22:19:19.869Z,56.90
2018-05-02T22:21:46.265Z,56.90
2018-05-02T22:24:12.614Z,56.90
2018-05-02T22:26:39.973Z,57.00
2018-05-02T22:29:06.409Z,57.00
2018-05-02T22:31:32.774Z,57.20
2018-05-02T22:33:59.115Z,57.20
2018-05-02T22:36:26.488Z,57.20
2018-05-02T22:38:52.876Z,57.70
2018-05-02T22:41:19.265Z,57.20
2018-05-02T22:43:45.626Z,57.10
2018-05-02T22:46:12.193Z,57.20
2018-05-02T22:48:38.587Z,57.70
2018-05-02T22:51:05.633Z,57.20
2018-05-02T22:53:31.984Z,57.10
2018-05-02T22:56:03.605Z,56.90
2018-05-02T22:58:29.953Z,56.80
2018-05-02T23:00:56.298Z,57.00
2018-05-02T23:03:22.746Z,56.90
2018-05-02T23:05:49.855Z,56.90
2018-05-02T23:08:16.222Z,57.00
2018-05-02T23:10:42.595Z,56.80
2018-05-02T23:13:08.934Z,57.00
2018-05-02T23:15:41.373Z,56.90
2018-05-02T23:18:07.757Z,56.80
2018-05-02T23:20:34.853Z,57.20
2018-05-02T23:23:02.044Z,57.20
2018-05-02T23:25:28.887Z,57.20
2018-05-02T23:27:55.622Z,57.30
2018-05-02T23:30:22.308Z,57.00
2018-05-02T23:32:49.446Z,57.10
2018-05-02T23:35:16.231Z,57.10
2018-05-02T23:37:42.538Z,57.30
2018-05-02T23:40:08.869Z,57.30
2018-05-02T23:42:35.229Z,57.10
2018-05-02T23:45:02.657Z,57.40
2018-05-02T23:47:29.047Z,57.40
2018-05-02T23:49:55.445Z,57.50
2018-05-02T23:52:22.534Z,57.60
2018-05-02T23:54:48.987Z,57.50
2018-05-02T23:57:15.403Z,57.30
2018-05-02T23:59:42.451Z,57.70
